sensor_id;sensor_type;location;lat;lon;timestamp;P1;durP1;ratioP1;P2;durP2;ratioP2
26102;SDS011;69760;49.380;8.998;2023-12-22T00:02:07;0.30;;;0.30;;
26102;SDS011;69760;49.380;8.998;2023-12-22T00:04:33;0.30;;;0.27;;
26102;SDS011;69760;49.380;8.998;2023-12-22T00:06:58;0.27;;;0.27;;
26102;SDS011;69760;49.380;8.998;2023-12-22T00:09:24;0.20;;;0.20;;
26102;SDS011;69760;49.380;8.998;2023-12-22T00:11:49;0.83;;;0.30;;
26102;SDS011;69760;49.380;8.998;2023-12-22T00:14:15;0.20;;;0.20;;
26102;SDS011;69760;49.380;8.998;2023-12-22T00:16:41;0.20;;;0.20;;
26102;SDS011;69760;49.380;8.998;2023-12-22T00:19:06;0.30;;;0.30;;
26102;SDS011;69760;49.380;8.998;2023-12-22T00:21:32;0.37;;;0.20;;
26102;SDS011;69760;49.380;8.998;2023-12-22T00:23:57;0.13;;;0.13;;
26102;SDS011;69760;49.380;8.998;2023-12-22T00:26:23;0.40;;;0.30;;
26102;SDS011;69760;49.380;8.998;2023-12-22T00:28:49;0.30;;;0.30;;
26102;SDS011;69760;49.380;8.998;2023-12-22T00:31:14;0.30;;;0.30;;
26102;SDS011;69760;49.380;8.998;2023-12-22T00:33:40;0.80;;;0.30;;
26102;SDS011;69760;49.380;8.998;2023-12-22T00:36:05;0.33;;;0.30;;
26102;SDS011;69760;49.380;8.998;2023-12-22T00:38:31;0.20;;;0.20;;
26102;SDS011;69760;49.380;8.998;2023-12-22T00:40:57;0.73;;;0.20;;
26102;SDS011;69760;49.380;8.998;2023-12-22T00:43:22;0.77;;;0.30;;
26102;SDS011;69760;49.380;8.998;2023-12-22T00:45:48;0.17;;;0.17;;
26102;SDS011;69760;49.380;8.998;2023-12-22T00:48:13;0.57;;;0.20;;
26102;SDS011;69760;49.380;8.998;2023-12-22T00:50:40;0.20;;;0.20;;
26102;SDS011;69760;49.380;8.998;2023-12-22T00:53:06;0.20;;;0.20;;
26102;SDS011;69760;49.380;8.998;2023-12-22T00:55:32;0.33;;;0.27;;
26102;SDS011;69760;49.380;8.998;2023-12-22T00:57:57;0.20;;;0.20;;
26102;SDS011;69760;49.380;8.998;2023-12-22T01:00:23;0.53;;;0.20;;
26102;SDS011;69760;49.380;8.998;2023-12-22T01:02:48;0.20;;;0.20;;
26102;SDS011;69760;49.380;8.998;2023-12-22T01:05:14;0.20;;;0.20;;
26102;SDS011;69760;49.380;8.998;2023-12-22T01:07:39;0.40;;;0.20;;
26102;SDS011;69760;49.380;8.998;2023-12-22T01:10:05;0.20;;;0.20;;
26102;SDS011;69760;49.380;8.998;2023-12-22T01:12:31;0.57;;;0.30;;
26102;SDS011;69760;49.380;8.998;2023-12-22T01:14:56;1.40;;;0.30;;
26102;SDS011;69760;49.380;8.998;2023-12-22T01:17:22;0.33;;;0.20;;
26102;SDS011;69760;49.380;8.998;2023-12-22T01:19:48;0.20;;;0.20;;
26102;SDS011;69760;49.380;8.998;2023-12-22T01:22:14;1.33;;;0.30;;
26102;SDS011;69760;49.380;8.998;2023-12-22T01:24:39;2.10;;;0.30;;
26102;SDS011;69760;49.380;8.998;2023-12-22T01:27:08;1.93;;;0.50;;
26102;SDS011;69760;49.380;8.998;2023-12-22T01:29:36;0.40;;;0.33;;
26102;SDS011;69760;49.380;8.998;2023-12-22T01:32:02;1.27;;;0.40;;
26102;SDS011;69760;49.380;8.998;2023-12-22T01:34:28;0.83;;;0.40;;
26102;SDS011;69760;49.380;8.998;2023-12-22T01:36:54;0.53;;;0.30;;
26102;SDS011;69760;49.380;8.998;2023-12-22T01:39:19;0.73;;;0.50;;
26102;SDS011;69760;49.380;8.998;2023-12-22T01:41:45;2.23;;;0.40;;
26102;SDS011;69760;49.380;8.998;2023-12-22T01:44:10;0.40;;;0.30;;
26102;SDS011;69760;49.380;8.998;2023-12-22T01:46:36;1.53;;;0.40;;
26102;SDS011;69760;49.380;8.998;2023-12-22T01:49:02;0.47;;;0.30;;
26102;SDS011;69760;49.380;8.998;2023-12-22T01:51:28;1.13;;;0.80;;
26102;SDS011;69760;49.380;8.998;2023-12-22T01:53:56;1.43;;;0.40;;
26102;SDS011;69760;49.380;8.998;2023-12-22T01:56:21;1.13;;;0.40;;
26102;SDS011;69760;49.380;8.998;2023-12-22T01:58:47;0.77;;;0.30;;
26102;SDS011;69760;49.380;8.998;2023-12-22T02:01:15;0.37;;;0.30;;
26102;SDS011;69760;49.380;8.998;2023-12-22T02:03:41;2.13;;;0.40;;
26102;SDS011;69760;49.380;8.998;2023-12-22T02:06:07;0.67;;;0.40;;
26102;SDS011;69760;49.380;8.998;2023-12-22T02:08:33;1.80;;;0.30;;
26102;SDS011;69760;49.380;8.998;2023-12-22T02:10:58;1.93;;;0.47;;
26102;SDS011;69760;49.380;8.998;2023-12-22T02:13:24;2.73;;;0.60;;
26102;SDS011;69760;49.380;8.998;2023-12-22T02:15:56;2.50;;;0.50;;
26102;SDS011;69760;49.380;8.998;2023-12-22T02:18:28;1.67;;;0.50;;
26102;SDS011;69760;49.380;8.998;2023-12-22T02:20:59;3.27;;;0.60;;
26102;SDS011;69760;49.380;8.998;2023-12-22T02:23:25;1.60;;;0.60;;
26102;SDS011;69760;49.380;8.998;2023-12-22T02:25:52;1.97;;;0.60;;
26102;SDS011;69760;49.380;8.998;2023-12-22T02:28:25;2.97;;;0.70;;
26102;SDS011;69760;49.380;8.998;2023-12-22T02:31:00;1.30;;;0.60;;
26102;SDS011;69760;49.380;8.998;2023-12-22T02:33:34;2.70;;;0.73;;
26102;SDS011;69760;49.380;8.998;2023-12-22T02:36:03;2.87;;;0.70;;
26102;SDS011;69760;49.380;8.998;2023-12-22T02:38:30;1.60;;;0.60;;
26102;SDS011;69760;49.380;8.998;2023-12-22T02:40:56;3.23;;;0.80;;
26102;SDS011;69760;49.380;8.998;2023-12-22T02:43:23;4.30;;;1.13;;
26102;SDS011;69760;49.380;8.998;2023-12-22T02:45:51;2.63;;;0.57;;
26102;SDS011;69760;49.380;8.998;2023-12-22T02:48:17;3.83;;;0.97;;
26102;SDS011;69760;49.380;8.998;2023-12-22T02:50:42;1.73;;;0.80;;
26102;SDS011;69760;49.380;8.998;2023-12-22T02:53:08;2.67;;;0.90;;
26102;SDS011;69760;49.380;8.998;2023-12-22T02:55:33;1.13;;;0.60;;
26102;SDS011;69760;49.380;8.998;2023-12-22T02:57:59;4.53;;;1.00;;
26102;SDS011;69760;49.380;8.998;2023-12-22T03:00:24;2.40;;;1.10;;
26102;SDS011;69760;49.380;8.998;2023-12-22T03:02:50;3.07;;;1.00;;
26102;SDS011;69760;49.380;8.998;2023-12-22T03:05:15;5.13;;;0.90;;
26102;SDS011;69760;49.380;8.998;2023-12-22T03:07:41;2.73;;;0.83;;
26102;SDS011;69760;49.380;8.998;2023-12-22T03:10:06;5.73;;;1.07;;
26102;SDS011;69760;49.380;8.998;2023-12-22T03:12:32;4.73;;;1.10;;
26102;SDS011;69760;49.380;8.998;2023-12-22T03:14:57;3.43;;;1.00;;
26102;SDS011;69760;49.380;8.998;2023-12-22T03:17:23;2.57;;;0.83;;
26102;SDS011;69760;49.380;8.998;2023-12-22T03:19:48;2.73;;;0.80;;
26102;SDS011;69760;49.380;8.998;2023-12-22T03:22:14;2.60;;;0.80;;
26102;SDS011;69760;49.380;8.998;2023-12-22T03:24:39;3.83;;;0.60;;
26102;SDS011;69760;49.380;8.998;2023-12-22T03:27:05;5.00;;;0.90;;
26102;SDS011;69760;49.380;8.998;2023-12-22T03:29:30;2.70;;;1.13;;
26102;SDS011;69760;49.380;8.998;2023-12-22T03:31:56;2.27;;;0.70;;
26102;SDS011;69760;49.380;8.998;2023-12-22T03:34:21;6.20;;;1.33;;
26102;SDS011;69760;49.380;8.998;2023-12-22T03:36:47;3.80;;;0.80;;
26102;SDS011;69760;49.380;8.998;2023-12-22T03:39:13;2.27;;;0.70;;
26102;SDS011;69760;49.380;8.998;2023-12-22T03:41:39;2.93;;;0.90;;
26102;SDS011;69760;49.380;8.998;2023-12-22T03:44:05;1.67;;;0.70;;
26102;SDS011;69760;49.380;8.998;2023-12-22T03:46:30;3.13;;;0.80;;
26102;SDS011;69760;49.380;8.998;2023-12-22T03:48:56;3.80;;;1.03;;
26102;SDS011;69760;49.380;8.998;2023-12-22T03:51:21;1.97;;;0.67;;
26102;SDS011;69760;49.380;8.998;2023-12-22T03:53:47;1.73;;;0.80;;
26102;SDS011;69760;49.380;8.998;2023-12-22T03:56:12;4.20;;;0.73;;
26102;SDS011;69760;49.380;8.998;2023-12-22T03:58:38;2.43;;;0.90;;
26102;SDS011;69760;49.380;8.998;2023-12-22T04:01:04;2.80;;;0.80;;
26102;SDS011;69760;49.380;8.998;2023-12-22T04:03:32;6.97;;;0.87;;
26102;SDS011;69760;49.380;8.998;2023-12-22T04:05:58;5.80;;;1.00;;
26102;SDS011;69760;49.380;8.998;2023-12-22T04:08:27;4.37;;;1.10;;
26102;SDS011;69760;49.380;8.998;2023-12-22T04:10:52;4.53;;;1.37;;
26102;SDS011;69760;49.380;8.998;2023-12-22T04:13:18;4.90;;;1.07;;
26102;SDS011;69760;49.380;8.998;2023-12-22T04:15:43;3.10;;;1.00;;
26102;SDS011;69760;49.380;8.998;2023-12-22T04:18:09;5.47;;;1.07;;
26102;SDS011;69760;49.380;8.998;2023-12-22T04:20:34;5.13;;;1.00;;
26102;SDS011;69760;49.380;8.998;2023-12-22T04:23:00;2.83;;;1.20;;
26102;SDS011;69760;49.380;8.998;2023-12-22T04:25:26;7.50;;;1.63;;
26102;SDS011;69760;49.380;8.998;2023-12-22T04:27:51;6.43;;;1.27;;
26102;SDS011;69760;49.380;8.998;2023-12-22T04:30:17;3.23;;;1.03;;
26102;SDS011;69760;49.380;8.998;2023-12-22T04:32:43;6.00;;;1.20;;
26102;SDS011;69760;49.380;8.998;2023-12-22T04:35:08;2.77;;;1.00;;
26102;SDS011;69760;49.380;8.998;2023-12-22T04:37:34;6.10;;;1.20;;
26102;SDS011;69760;49.380;8.998;2023-12-22T04:40:00;9.30;;;1.63;;
26102;SDS011;69760;49.380;8.998;2023-12-22T04:42:25;4.03;;;1.40;;
26102;SDS011;69760;49.380;8.998;2023-12-22T04:44:51;6.10;;;1.60;;
26102;SDS011;69760;49.380;8.998;2023-12-22T04:47:17;13.40;;;2.77;;
26102;SDS011;69760;49.380;8.998;2023-12-22T04:49:42;4.23;;;1.07;;
26102;SDS011;69760;49.380;8.998;2023-12-22T04:52:08;8.23;;;1.10;;
26102;SDS011;69760;49.380;8.998;2023-12-22T04:54:33;6.60;;;1.73;;
26102;SDS011;69760;49.380;8.998;2023-12-22T04:56:59;3.27;;;1.13;;
26102;SDS011;69760;49.380;8.998;2023-12-22T04:59:24;3.57;;;1.03;;
26102;SDS011;69760;49.380;8.998;2023-12-22T05:01:50;7.67;;;1.30;;
26102;SDS011;69760;49.380;8.998;2023-12-22T05:04:15;6.73;;;1.07;;
26102;SDS011;69760;49.380;8.998;2023-12-22T05:06:42;3.90;;;1.17;;
26102;SDS011;69760;49.380;8.998;2023-12-22T05:09:08;5.50;;;1.40;;
26102;SDS011;69760;49.380;8.998;2023-12-22T05:11:33;3.53;;;1.00;;
26102;SDS011;69760;49.380;8.998;2023-12-22T05:13:59;5.70;;;1.23;;
26102;SDS011;69760;49.380;8.998;2023-12-22T05:16:25;4.57;;;1.00;;
26102;SDS011;69760;49.380;8.998;2023-12-22T05:18:50;4.23;;;1.53;;
26102;SDS011;69760;49.380;8.998;2023-12-22T05:21:16;5.07;;;1.17;;
26102;SDS011;69760;49.380;8.998;2023-12-22T05:23:41;5.67;;;1.20;;
26102;SDS011;69760;49.380;8.998;2023-12-22T05:26:07;6.03;;;1.20;;
26102;SDS011;69760;49.380;8.998;2023-12-22T05:28:33;8.83;;;1.93;;
26102;SDS011;69760;49.380;8.998;2023-12-22T05:30:58;4.87;;;1.00;;
26102;SDS011;69760;49.380;8.998;2023-12-22T05:33:24;9.63;;;1.57;;
26102;SDS011;69760;49.380;8.998;2023-12-22T05:35:49;6.13;;;1.80;;
26102;SDS011;69760;49.380;8.998;2023-12-22T05:38:15;5.73;;;1.20;;
26102;SDS011;69760;49.380;8.998;2023-12-22T05:40:40;3.77;;;0.90;;
26102;SDS011;69760;49.380;8.998;2023-12-22T05:43:06;2.90;;;0.93;;
26102;SDS011;69760;49.380;8.998;2023-12-22T05:45:32;2.33;;;0.97;;
26102;SDS011;69760;49.380;8.998;2023-12-22T05:47:57;4.70;;;1.10;;
26102;SDS011;69760;49.380;8.998;2023-12-22T05:50:23;6.83;;;1.17;;
26102;SDS011;69760;49.380;8.998;2023-12-22T05:52:48;2.23;;;0.80;;
26102;SDS011;69760;49.380;8.998;2023-12-22T05:55:14;3.20;;;1.20;;
26102;SDS011;69760;49.380;8.998;2023-12-22T05:57:40;7.43;;;1.50;;
26102;SDS011;69760;49.380;8.998;2023-12-22T06:00:06;5.27;;;1.97;;
26102;SDS011;69760;49.380;8.998;2023-12-22T06:02:34;1.30;;;0.80;;
26102;SDS011;69760;49.380;8.998;2023-12-22T06:05:00;1.73;;;0.80;;
26102;SDS011;69760;49.380;8.998;2023-12-22T06:07:26;2.80;;;0.90;;
26102;SDS011;69760;49.380;8.998;2023-12-22T06:09:51;2.77;;;0.70;;
26102;SDS011;69760;49.380;8.998;2023-12-22T06:12:17;4.60;;;0.80;;
26102;SDS011;69760;49.380;8.998;2023-12-22T06:14:43;3.17;;;0.80;;
26102;SDS011;69760;49.380;8.998;2023-12-22T06:17:08;4.60;;;1.00;;
26102;SDS011;69760;49.380;8.998;2023-12-22T06:19:35;2.77;;;0.90;;
26102;SDS011;69760;49.380;8.998;2023-12-22T06:22:01;7.23;;;1.30;;
26102;SDS011;69760;49.380;8.998;2023-12-22T06:24:26;3.20;;;1.03;;
26102;SDS011;69760;49.380;8.998;2023-12-22T06:26:52;5.93;;;1.10;;
26102;SDS011;69760;49.380;8.998;2023-12-22T06:29:17;3.43;;;1.10;;
26102;SDS011;69760;49.380;8.998;2023-12-22T06:31:43;5.73;;;1.50;;
26102;SDS011;69760;49.380;8.998;2023-12-22T06:34:09;3.60;;;0.90;;
26102;SDS011;69760;49.380;8.998;2023-12-22T06:36:34;6.07;;;1.47;;
26102;SDS011;69760;49.380;8.998;2023-12-22T06:39:00;4.50;;;1.40;;
26102;SDS011;69760;49.380;8.998;2023-12-22T06:41:26;5.73;;;1.27;;
26102;SDS011;69760;49.380;8.998;2023-12-22T06:43:56;6.60;;;1.50;;
26102;SDS011;69760;49.380;8.998;2023-12-22T06:46:24;8.03;;;1.40;;
26102;SDS011;69760;49.380;8.998;2023-12-22T06:48:51;9.03;;;1.20;;
26102;SDS011;69760;49.380;8.998;2023-12-22T06:51:20;9.90;;;1.43;;
26102;SDS011;69760;49.380;8.998;2023-12-22T06:53:47;5.93;;;1.47;;
26102;SDS011;69760;49.380;8.998;2023-12-22T06:56:19;7.33;;;1.37;;
26102;SDS011;69760;49.380;8.998;2023-12-22T06:58:52;6.80;;;1.40;;
26102;SDS011;69760;49.380;8.998;2023-12-22T07:01:28;6.00;;;1.33;;
26102;SDS011;69760;49.380;8.998;2023-12-22T07:03:57;11.40;;;1.97;;
26102;SDS011;69760;49.380;8.998;2023-12-22T07:06:25;9.07;;;1.77;;
26102;SDS011;69760;49.380;8.998;2023-12-22T07:11:40;9.87;;;1.80;;
26102;SDS011;69760;49.380;8.998;2023-12-22T07:14:07;5.70;;;1.30;;
26102;SDS011;69760;49.380;8.998;2023-12-22T07:16:33;8.90;;;1.60;;
26102;SDS011;69760;49.380;8.998;2023-12-22T07:18:59;6.60;;;1.50;;
26102;SDS011;69760;49.380;8.998;2023-12-22T07:21:24;6.10;;;1.33;;
26102;SDS011;69760;49.380;8.998;2023-12-22T07:23:50;6.70;;;1.43;;
26102;SDS011;69760;49.380;8.998;2023-12-22T07:26:16;3.87;;;1.37;;
26102;SDS011;69760;49.380;8.998;2023-12-22T07:28:42;8.73;;;1.60;;
26102;SDS011;69760;49.380;8.998;2023-12-22T07:31:07;7.13;;;1.27;;
26102;SDS011;69760;49.380;8.998;2023-12-22T07:33:33;7.23;;;1.70;;
26102;SDS011;69760;49.380;8.998;2023-12-22T07:35:58;7.77;;;1.60;;
26102;SDS011;69760;49.380;8.998;2023-12-22T07:38:24;6.90;;;1.20;;
26102;SDS011;69760;49.380;8.998;2023-12-22T07:40:49;7.80;;;1.40;;
26102;SDS011;69760;49.380;8.998;2023-12-22T07:43:15;7.37;;;1.50;;
26102;SDS011;69760;49.380;8.998;2023-12-22T07:45:41;9.30;;;1.60;;
26102;SDS011;69760;49.380;8.998;2023-12-22T07:48:06;8.13;;;1.23;;
26102;SDS011;69760;49.380;8.998;2023-12-22T07:50:32;5.27;;;1.17;;
26102;SDS011;69760;49.380;8.998;2023-12-22T07:52:58;12.18;;;1.65;;
26102;SDS011;69760;49.380;8.998;2023-12-22T07:55:24;7.60;;;1.63;;
26102;SDS011;69760;49.380;8.998;2023-12-22T07:57:50;4.43;;;1.25;;
26102;SDS011;69760;49.380;8.998;2023-12-22T08:00:16;5.97;;;1.40;;
26102;SDS011;69760;49.380;8.998;2023-12-22T08:02:42;4.47;;;1.30;;
26102;SDS011;69760;49.380;8.998;2023-12-22T08:05:08;6.75;;;1.40;;
26102;SDS011;69760;49.380;8.998;2023-12-22T08:07:34;3.38;;;1.10;;
26102;SDS011;69760;49.380;8.998;2023-12-22T08:10:00;2.72;;;1.10;;
26102;SDS011;69760;49.380;8.998;2023-12-22T08:12:27;4.43;;;0.90;;
26102;SDS011;69760;49.380;8.998;2023-12-22T08:14:53;4.93;;;1.10;;
26102;SDS011;69760;49.380;8.998;2023-12-22T08:17:18;3.08;;;1.02;;
26102;SDS011;69760;49.380;8.998;2023-12-22T08:19:44;2.90;;;0.80;;
26102;SDS011;69760;49.380;8.998;2023-12-22T08:22:10;4.10;;;0.80;;
26102;SDS011;69760;49.380;8.998;2023-12-22T08:24:35;5.20;;;0.80;;
26102;SDS011;69760;49.380;8.998;2023-12-22T08:27:01;1.33;;;0.65;;
26102;SDS011;69760;49.380;8.998;2023-12-22T08:29:27;3.28;;;0.80;;
26102;SDS011;69760;49.380;8.998;2023-12-22T08:31:52;3.30;;;0.95;;
26102;SDS011;69760;49.380;8.998;2023-12-22T08:34:18;3.10;;;0.50;;
26102;SDS011;69760;49.380;8.998;2023-12-22T08:36:44;2.10;;;0.55;;
26102;SDS011;69760;49.380;8.998;2023-12-22T08:39:09;5.03;;;0.80;;
26102;SDS011;69760;49.380;8.998;2023-12-22T08:41:35;3.00;;;0.50;;
26102;SDS011;69760;49.380;8.998;2023-12-22T08:44:04;1.45;;;0.65;;
26102;SDS011;69760;49.380;8.998;2023-12-22T08:46:30;3.60;;;0.90;;
26102;SDS011;69760;49.380;8.998;2023-12-22T08:48:56;3.67;;;1.00;;
26102;SDS011;69760;49.380;8.998;2023-12-22T08:51:24;5.43;;;0.80;;
26102;SDS011;69760;49.380;8.998;2023-12-22T08:53:50;2.47;;;0.70;;
26102;SDS011;69760;49.380;8.998;2023-12-22T08:56:17;4.75;;;0.70;;
26102;SDS011;69760;49.380;8.998;2023-12-22T08:58:42;1.27;;;0.60;;
26102;SDS011;69760;49.380;8.998;2023-12-22T09:01:13;6.40;;;1.00;;
26102;SDS011;69760;49.380;8.998;2023-12-22T09:03:40;2.33;;;1.02;;
26102;SDS011;69760;49.380;8.998;2023-12-22T09:06:09;2.42;;;0.88;;
26102;SDS011;69760;49.380;8.998;2023-12-22T09:08:35;5.55;;;1.13;;
26102;SDS011;69760;49.380;8.998;2023-12-22T09:11:01;8.17;;;1.30;;
26102;SDS011;69760;49.380;8.998;2023-12-22T09:13:26;5.55;;;1.20;;
26102;SDS011;69760;49.380;8.998;2023-12-22T09:15:52;3.77;;;1.30;;
26102;SDS011;69760;49.380;8.998;2023-12-22T09:18:18;4.50;;;0.80;;
26102;SDS011;69760;49.380;8.998;2023-12-22T09:20:44;7.97;;;1.30;;
26102;SDS011;69760;49.380;8.998;2023-12-22T09:23:09;8.50;;;1.37;;
26102;SDS011;69760;49.380;8.998;2023-12-22T09:25:35;5.63;;;1.10;;
26102;SDS011;69760;49.380;8.998;2023-12-22T09:28:01;4.10;;;1.50;;
26102;SDS011;69760;49.380;8.998;2023-12-22T09:30:26;5.27;;;1.37;;
26102;SDS011;69760;49.380;8.998;2023-12-22T09:32:52;4.70;;;1.50;;
26102;SDS011;69760;49.380;8.998;2023-12-22T09:35:17;6.33;;;1.50;;
26102;SDS011;69760;49.380;8.998;2023-12-22T09:37:43;7.87;;;1.50;;
26102;SDS011;69760;49.380;8.998;2023-12-22T09:40:09;4.47;;;1.40;;
26102;SDS011;69760;49.380;8.998;2023-12-22T09:42:35;6.68;;;1.85;;
26102;SDS011;69760;49.380;8.998;2023-12-22T09:45:03;7.63;;;2.00;;
26102;SDS011;69760;49.380;8.998;2023-12-22T09:47:30;5.13;;;1.70;;
26102;SDS011;69760;49.380;8.998;2023-12-22T09:49:59;6.30;;;1.63;;
26102;SDS011;69760;49.380;8.998;2023-12-22T09:52:25;8.60;;;2.00;;
26102;SDS011;69760;49.380;8.998;2023-12-22T09:54:53;6.78;;;1.88;;
26102;SDS011;69760;49.380;8.998;2023-12-22T09:57:20;5.07;;;1.90;;
26102;SDS011;69760;49.380;8.998;2023-12-22T09:59:48;8.82;;;1.70;;
26102;SDS011;69760;49.380;8.998;2023-12-22T10:02:17;11.67;;;1.80;;
26102;SDS011;69760;49.380;8.998;2023-12-22T10:04:42;16.73;;;2.53;;
26102;SDS011;69760;49.380;8.998;2023-12-22T10:07:08;11.87;;;2.13;;
26102;SDS011;69760;49.380;8.998;2023-12-22T10:09:38;10.73;;;2.10;;
26102;SDS011;69760;49.380;8.998;2023-12-22T10:12:05;12.23;;;2.70;;
26102;SDS011;69760;49.380;8.998;2023-12-22T10:14:34;9.05;;;2.08;;
26102;SDS011;69760;49.380;8.998;2023-12-22T10:17:02;8.47;;;2.17;;
26102;SDS011;69760;49.380;8.998;2023-12-22T10:19:27;11.73;;;2.05;;
26102;SDS011;69760;49.380;8.998;2023-12-22T10:21:53;13.57;;;2.22;;
26102;SDS011;69760;49.380;8.998;2023-12-22T10:27:13;12.60;;;2.28;;
26102;SDS011;69760;49.380;8.998;2023-12-22T10:29:47;9.37;;;2.27;;
26102;SDS011;69760;49.380;8.998;2023-12-22T10:32:19;13.05;;;2.53;;
26102;SDS011;69760;49.380;8.998;2023-12-22T10:34:46;17.35;;;2.53;;
26102;SDS011;69760;49.380;8.998;2023-12-22T10:37:12;13.30;;;2.92;;
26102;SDS011;69760;49.380;8.998;2023-12-22T10:39:38;14.25;;;2.72;;
26102;SDS011;69760;49.380;8.998;2023-12-22T10:42:04;13.50;;;2.28;;
26102;SDS011;69760;49.380;8.998;2023-12-22T10:44:30;12.30;;;2.20;;
26102;SDS011;69760;49.380;8.998;2023-12-22T10:46:55;12.23;;;2.47;;
26102;SDS011;69760;49.380;8.998;2023-12-22T10:49:22;7.80;;;2.20;;
26102;SDS011;69760;49.380;8.998;2023-12-22T10:51:49;13.23;;;2.90;;
26102;SDS011;69760;49.380;8.998;2023-12-22T10:54:16;11.70;;;2.45;;
26102;SDS011;69760;49.380;8.998;2023-12-22T10:56:42;13.77;;;2.90;;
26102;SDS011;69760;49.380;8.998;2023-12-22T10:59:10;15.52;;;2.90;;
26102;SDS011;69760;49.380;8.998;2023-12-22T11:01:36;16.30;;;3.38;;
26102;SDS011;69760;49.380;8.998;2023-12-22T11:04:06;15.00;;;2.50;;
26102;SDS011;69760;49.380;8.998;2023-12-22T11:06:34;15.82;;;3.00;;
26102;SDS011;69760;49.380;8.998;2023-12-22T11:09:01;15.63;;;3.00;;
26102;SDS011;69760;49.380;8.998;2023-12-22T11:11:35;10.95;;;2.28;;
26102;SDS011;69760;49.380;8.998;2023-12-22T11:14:05;11.05;;;3.00;;
26102;SDS011;69760;49.380;8.998;2023-12-22T11:16:32;11.65;;;2.72;;
26102;SDS011;69760;49.380;8.998;2023-12-22T11:18:59;18.65;;;2.92;;
26102;SDS011;69760;49.380;8.998;2023-12-22T11:21:28;16.17;;;3.00;;
26102;SDS011;69760;49.380;8.998;2023-12-22T11:23:55;15.50;;;2.80;;
26102;SDS011;69760;49.380;8.998;2023-12-22T11:26:22;13.00;;;3.92;;
26102;SDS011;69760;49.380;8.998;2023-12-22T11:28:50;19.67;;;3.40;;
26102;SDS011;69760;49.380;8.998;2023-12-22T11:31:17;17.25;;;2.80;;
26102;SDS011;69760;49.380;8.998;2023-12-22T11:33:44;11.85;;;2.45;;
26102;SDS011;69760;49.380;8.998;2023-12-22T11:36:12;17.00;;;2.83;;
26102;SDS011;69760;49.380;8.998;2023-12-22T11:38:39;12.30;;;2.92;;
26102;SDS011;69760;49.380;8.998;2023-12-22T11:41:05;18.05;;;3.40;;
26102;SDS011;69760;49.380;8.998;2023-12-22T11:43:35;13.20;;;3.13;;
26102;SDS011;69760;49.380;8.998;2023-12-22T11:46:03;16.95;;;3.03;;
26102;SDS011;69760;49.380;8.998;2023-12-22T11:48:29;14.50;;;3.28;;
26102;SDS011;69760;49.380;8.998;2023-12-22T11:50:55;16.50;;;3.03;;
26102;SDS011;69760;49.380;8.998;2023-12-22T11:53:21;15.52;;;2.72;;
26102;SDS011;69760;49.380;8.998;2023-12-22T11:56:07;11.43;;;2.33;;
26102;SDS011;69760;49.380;8.998;2023-12-22T11:58:46;14.77;;;2.83;;
26102;SDS011;69760;49.380;8.998;2023-12-22T12:01:17;9.23;;;2.15;;
26102;SDS011;69760;49.380;8.998;2023-12-22T12:08:55;12.35;;;2.28;;
26102;SDS011;69760;49.380;8.998;2023-12-22T12:14:16;13.90;;;2.25;;
26102;SDS011;69760;49.380;8.998;2023-12-22T12:16:46;11.63;;;2.42;;
26102;SDS011;69760;49.380;8.998;2023-12-22T12:19:12;9.00;;;2.13;;
26102;SDS011;69760;49.380;8.998;2023-12-22T12:21:39;12.52;;;2.38;;
26102;SDS011;69760;49.380;8.998;2023-12-22T12:24:05;10.43;;;2.00;;
26102;SDS011;69760;49.380;8.998;2023-12-22T12:26:32;11.95;;;1.88;;
26102;SDS011;69760;49.380;8.998;2023-12-22T12:28:58;11.15;;;2.45;;
26102;SDS011;69760;49.380;8.998;2023-12-22T12:31:35;11.43;;;2.25;;
26102;SDS011;69760;49.380;8.998;2023-12-22T12:34:04;12.23;;;2.15;;
26102;SDS011;69760;49.380;8.998;2023-12-22T12:36:30;10.10;;;2.40;;
26102;SDS011;69760;49.380;8.998;2023-12-22T12:39:09;9.73;;;1.75;;
26102;SDS011;69760;49.380;8.998;2023-12-22T12:41:40;7.30;;;1.70;;
26102;SDS011;69760;49.380;8.998;2023-12-22T12:44:08;6.95;;;2.30;;
26102;SDS011;69760;49.380;8.998;2023-12-22T12:46:38;6.13;;;1.70;;
26102;SDS011;69760;49.380;8.998;2023-12-22T12:51:37;3.83;;;1.25;;
26102;SDS011;69760;49.380;8.998;2023-12-22T12:54:04;4.35;;;1.13;;
26102;SDS011;69760;49.380;8.998;2023-12-22T12:56:36;7.13;;;1.38;;
26102;SDS011;69760;49.380;8.998;2023-12-22T12:59:08;5.75;;;1.65;;
26102;SDS011;69760;49.380;8.998;2023-12-22T13:01:38;4.60;;;1.80;;
26102;SDS011;69760;49.380;8.998;2023-12-22T13:04:08;10.00;;;2.78;;
26102;SDS011;69760;49.380;8.998;2023-12-22T13:06:34;4.50;;;1.30;;
26102;SDS011;69760;49.380;8.998;2023-12-22T13:09:00;2.80;;;1.05;;
26102;SDS011;69760;49.380;8.998;2023-12-22T13:11:26;5.88;;;1.23;;
26102;SDS011;69760;49.380;8.998;2023-12-22T13:13:55;2.45;;;1.20;;
26102;SDS011;69760;49.380;8.998;2023-12-22T13:16:22;5.72;;;1.20;;
26102;SDS011;69760;49.380;8.998;2023-12-22T13:18:54;3.30;;;1.02;;
26102;SDS011;69760;49.380;8.998;2023-12-22T13:21:21;2.47;;;0.95;;
26102;SDS011;69760;49.380;8.998;2023-12-22T13:23:47;3.05;;;1.00;;
26102;SDS011;69760;49.380;8.998;2023-12-22T13:26:19;6.43;;;1.20;;
26102;SDS011;69760;49.380;8.998;2023-12-22T13:28:45;2.10;;;1.00;;
26102;SDS011;69760;49.380;8.998;2023-12-22T13:31:14;2.83;;;1.00;;
26102;SDS011;69760;49.380;8.998;2023-12-22T13:33:43;3.38;;;1.13;;
26102;SDS011;69760;49.380;8.998;2023-12-22T13:36:09;3.95;;;0.80;;
26102;SDS011;69760;49.380;8.998;2023-12-22T13:38:35;1.35;;;0.60;;
26102;SDS011;69760;49.380;8.998;2023-12-22T13:41:03;3.08;;;1.02;;
26102;SDS011;69760;49.380;8.998;2023-12-22T13:43:31;1.75;;;0.90;;
26102;SDS011;69760;49.380;8.998;2023-12-22T13:45:57;1.63;;;0.65;;
26102;SDS011;69760;49.380;8.998;2023-12-22T13:48:23;1.08;;;0.70;;
26102;SDS011;69760;49.380;8.998;2023-12-22T13:50:58;2.83;;;1.10;;
26102;SDS011;69760;49.380;8.998;2023-12-22T13:53:25;3.05;;;1.38;;
26102;SDS011;69760;49.380;8.998;2023-12-22T13:55:57;1.40;;;1.00;;
26102;SDS011;69760;49.380;8.998;2023-12-22T13:58:24;6.78;;;1.63;;
26102;SDS011;69760;49.380;8.998;2023-12-22T14:00:50;1.33;;;0.80;;
26102;SDS011;69760;49.380;8.998;2023-12-22T14:03:16;1.58;;;0.70;;
26102;SDS011;69760;49.380;8.998;2023-12-22T14:05:42;1.10;;;0.70;;
26102;SDS011;69760;49.380;8.998;2023-12-22T14:08:08;0.70;;;0.52;;
26102;SDS011;69760;49.380;8.998;2023-12-22T14:10:34;1.17;;;0.60;;
26102;SDS011;69760;49.380;8.998;2023-12-22T14:13:00;1.83;;;0.93;;
26102;SDS011;69760;49.380;8.998;2023-12-22T14:15:25;1.80;;;0.70;;
26102;SDS011;69760;49.380;8.998;2023-12-22T14:17:54;3.05;;;1.00;;
26102;SDS011;69760;49.380;8.998;2023-12-22T14:20:20;1.58;;;0.70;;
26102;SDS011;69760;49.380;8.998;2023-12-22T14:22:46;1.65;;;0.50;;
26102;SDS011;69760;49.380;8.998;2023-12-22T14:25:11;0.50;;;0.40;;
26102;SDS011;69760;49.380;8.998;2023-12-22T14:27:37;2.15;;;0.50;;
26102;SDS011;69760;49.380;8.998;2023-12-22T14:30:02;0.80;;;0.50;;
26102;SDS011;69760;49.380;8.998;2023-12-22T14:32:28;1.58;;;0.47;;
26102;SDS011;69760;49.380;8.998;2023-12-22T14:34:54;0.85;;;0.50;;
26102;SDS011;69760;49.380;8.998;2023-12-22T14:37:20;0.93;;;0.60;;
26102;SDS011;69760;49.380;8.998;2023-12-22T14:39:46;0.50;;;0.50;;
26102;SDS011;69760;49.380;8.998;2023-12-22T14:42:12;0.70;;;0.50;;
26102;SDS011;69760;49.380;8.998;2023-12-22T14:44:38;2.05;;;0.60;;
26102;SDS011;69760;49.380;8.998;2023-12-22T14:47:07;0.93;;;0.82;;
26102;SDS011;69760;49.380;8.998;2023-12-22T14:49:32;0.52;;;0.52;;
26102;SDS011;69760;49.380;8.998;2023-12-22T14:51:58;1.58;;;0.60;;
26102;SDS011;69760;49.380;8.998;2023-12-22T14:54:25;1.00;;;0.50;;
26102;SDS011;69760;49.380;8.998;2023-12-22T14:56:51;1.42;;;0.70;;
26102;SDS011;69760;49.380;8.998;2023-12-22T14:59:16;0.68;;;0.60;;